createdAt,value
2023-07-12T00:00:22.381Z,45.48
2023-07-12T00:03:03.252Z,45.18
2023-07-12T00:05:47.954Z,45.59
2023-07-12T00:08:33.340Z,44.98
2023-07-12T00:11:27.277Z,44.79
2023-07-12T00:14:09.117Z,45.21
2023-07-12T00:16:48.492Z,46.67
2023-07-12T00:19:25.761Z,47.83
2023-07-12T00:22:04.786Z,47.79
2023-07-12T00:24:41.581Z,47.48
2023-07-12T00:27:20.578Z,46.39
2023-07-12T00:29:57.479Z,46.56
2023-07-12T00:32:46.140Z,46.99
2023-07-12T00:35:25.883Z,46.57
2023-07-12T00:38:04.729Z,47.61
2023-07-12T00:41:12.483Z,47.82
2023-07-12T00:43:59.568Z,48.64
2023-07-12T00:46:53.403Z,48.66
2023-07-12T00:49:42.601Z,48.59
2023-07-12T00:52:22.320Z,48.94
2023-07-12T00:55:03.273Z,48.12
2023-07-12T00:57:33.248Z,48.99
2023-07-12T01:00:20.344Z,48.75
2023-07-12T01:03:14.474Z,49.42
2023-07-12T01:05:54.956Z,49.77
2023-07-12T01:08:35.514Z,48.96
2023-07-12T01:11:12.575Z,48.70
2023-07-12T01:13:58.826Z,48.65
2023-07-12T01:16:34.536Z,49.17
2023-07-12T01:19:18.124Z,49.33
2023-07-12T01:22:02.866Z,49.10
2023-07-12T01:24:47.213Z,47.67
2023-07-12T01:27:29.171Z,49.28
2023-07-12T01:30:08.378Z,48.76
2023-07-12T01:32:45.300Z,49.58
2023-07-12T01:35:26.567Z,49.63
2023-07-12T01:38:10.431Z,50.19
2023-07-12T01:40:50.076Z,50.45
2023-07-12T01:43:36.168Z,50.12
2023-07-12T01:46:15.049Z,51.52
2023-07-12T01:48:56.013Z,50.67
2023-07-12T01:51:48.198Z,50.13
2023-07-12T01:54:27.346Z,51.20
2023-07-12T01:57:08.562Z,52.09
2023-07-12T01:59:41.429Z,51.82
2023-07-12T02:02:20.212Z,52.32
2023-07-12T02:05:03.653Z,52.87
2023-07-12T02:07:41.958Z,53.57
2023-07-12T02:10:29.762Z,52.85
2023-07-12T02:13:13.094Z,53.05
2023-07-12T02:15:46.003Z,53.27
2023-07-12T02:18:21.890Z,53.13
2023-07-12T02:21:00.581Z,53.42
2023-07-12T02:23:36.047Z,53.61
2023-07-12T02:26:18.108Z,53.08
2023-07-12T02:28:56.604Z,53.13
2023-07-12T02:31:45.361Z,52.39
2023-07-12T02:34:29.360Z,52.78
2023-07-12T02:37:13.675Z,52.89
2023-07-12T02:39:43.752Z,53.64
2023-07-12T02:42:27.665Z,53.27
2023-07-12T02:45:14.212Z,53.28
2023-07-12T02:48:04.894Z,51.65
2023-07-12T02:50:46.167Z,51.29
2023-07-12T02:53:29.702Z,51.35
2023-07-12T02:56:21.605Z,51.38
2023-07-12T02:59:11.067Z,50.98
2023-07-12T03:01:54.711Z,50.25
2023-07-12T03:04:39.169Z,49.76
2023-07-12T03:07:09.402Z,49.48
2023-07-12T03:09:39.629Z,48.94
2023-07-12T03:12:15.370Z,49.24
2023-07-12T03:14:59.825Z,49.96
2023-07-12T03:17:42.809Z,49.64
2023-07-12T03:20:27.023Z,49.69
2023-07-12T03:23:08.474Z,49.27
2023-07-12T03:25:49.843Z,49.14
2023-07-12T03:28:34.091Z,49.39
2023-07-12T03:31:17.431Z,49.10
2023-07-12T03:34:01.185Z,48.15
2023-07-12T03:36:42.683Z,48.78
2023-07-12T03:39:28.167Z,48.35
2023-07-12T03:42:19.002Z,48.30
2023-07-12T03:44:57.677Z,48.04
2023-07-12T03:47:41.399Z,48.13
2023-07-12T03:50:24.456Z,48.77
2023-07-12T03:53:08.488Z,49.05
2023-07-12T03:55:54.183Z,49.40
2023-07-12T03:58:35.220Z,47.91
2023-07-12T04:01:05.042Z,47.75
2023-07-12T04:03:38.912Z,47.96
2023-07-12T04:06:27.681Z,46.85
2023-07-12T04:09:14.130Z,46.31
2023-07-12T04:11:51.871Z,46.60
2023-07-12T04:14:30.050Z,46.17
2023-07-12T04:17:10.627Z,46.24
2023-07-12T04:19:57.079Z,46.21
2023-07-12T04:22:29.491Z,46.18
2023-07-12T04:24:56.707Z,45.75
2023-07-12T04:27:38.662Z,45.25
2023-07-12T04:30:20.747Z,45.49
2023-07-12T04:33:08.090Z,46.12
2023-07-12T04:35:41.444Z,46.18
2023-07-12T04:38:14.054Z,46.11
2023-07-12T04:41:02.501Z,45.64
2023-07-12T04:43:46.548Z,45.58
2023-07-12T04:46:24.526Z,45.03
2023-07-12T04:49:08.361Z,44.79
2023-07-12T04:51:38.764Z,45.09
2023-07-12T04:54:22.848Z,44.56
2023-07-12T04:56:55.328Z,44.95
2023-07-12T04:59:55.277Z,44.98
2023-07-12T05:02:40.241Z,43.89
2023-07-12T05:05:31.657Z,44.35
2023-07-12T05:08:17.104Z,45.15
2023-07-12T05:11:10.066Z,44.43
2023-07-12T05:13:55.564Z,43.88
2023-07-12T05:16:37.251Z,43.71
2023-07-12T05:19:05.856Z,44.29
2023-07-12T05:21:41.359Z,43.24
2023-07-12T05:24:22.500Z,43.08
2023-07-12T05:27:02.306Z,43.90
2023-07-12T05:29:35.414Z,44.49
2023-07-12T05:32:14.372Z,44.36
2023-07-12T05:34:58.466Z,44.45
2023-07-12T05:37:45.141Z,45.39
2023-07-12T05:40:25.872Z,45.20
2023-07-12T05:43:06.801Z,45.37
2023-07-12T05:45:47.813Z,45.06
2023-07-12T05:48:21.276Z,44.60
2023-07-12T05:50:56.297Z,44.22
2023-07-12T05:53:33.581Z,44.81
2023-07-12T05:56:11.254Z,45.43
2023-07-12T05:58:51.615Z,45.07
2023-07-12T06:01:31.294Z,44.96
2023-07-12T06:04:01.014Z,44.21
2023-07-12T06:06:45.115Z,44.26
2023-07-12T06:09:29.567Z,43.91
2023-07-12T06:12:03.459Z,43.90
2023-07-12T06:14:43.574Z,44.48
2023-07-12T06:17:14.639Z,43.63
2023-07-12T06:19:56.727Z,42.60
2023-07-12T06:22:38.594Z,42.22
2023-07-12T06:25:20.543Z,43.10
2023-07-12T06:27:54.390Z,42.89
2023-07-12T06:30:35.714Z,42.47
2023-07-12T06:33:12.139Z,41.19
2023-07-12T06:35:49.955Z,40.32
2023-07-12T06:38:29.310Z,39.76
2023-07-12T06:41:09.218Z,39.08
2023-07-12T06:43:59.703Z,39.96
2023-07-12T06:46:38.082Z,39.60
2023-07-12T06:49:17.198Z,39.16
2023-07-12T06:51:58.890Z,39.38
2023-07-12T06:54:34.552Z,37.71
2023-07-12T06:57:07.540Z,39.92
2023-07-12T06:59:45.693Z,38.18
2023-07-12T07:02:21.652Z,38.38
2023-07-12T07:04:54.337Z,37.99
2023-07-12T07:07:35.587Z,38.72
2023-07-12T07:10:04.700Z,37.05
2023-07-12T07:12:37.274Z,37.66
2023-07-12T07:15:18.217Z,38.16
2023-07-12T07:18:02.891Z,37.81
2023-07-12T07:20:50.050Z,36.64
2023-07-12T07:23:23.145Z,35.29
2023-07-12T07:25:58.588Z,34.36
2023-07-12T07:28:39.012Z,35.03
2023-07-12T07:31:07.251Z,36.31
2023-07-12T07:33:45.455Z,36.17
2023-07-12T07:36:29.158Z,36.10
2023-07-12T07:39:10.597Z,36.35
2023-07-12T07:41:45.650Z,35.63
2023-07-12T07:44:23.665Z,35.77
2023-07-12T07:47:06.565Z,36.11
2023-07-12T07:49:45.150Z,35.03
2023-07-12T07:52:33.101Z,35.14
2023-07-12T07:55:03.027Z,33.98
2023-07-12T07:57:48.431Z,34.18
2023-07-12T08:00:36.504Z,34.26
2023-07-12T08:03:15.335Z,33.01
2023-07-12T08:05:53.766Z,32.82
2023-07-12T08:08:31.118Z,32.88
2023-07-12T08:11:12.451Z,33.71
2023-07-12T08:13:50.838Z,33.27
2023-07-12T08:16:35.071Z,33.19
2023-07-12T08:19:18.281Z,33.59
2023-07-12T08:21:57.956Z,33.33
2023-07-12T08:24:34.374Z,33.30
2023-07-12T08:27:08.689Z,33.59
2023-07-12T08:29:47.304Z,32.64
2023-07-12T08:32:14.557Z,32.47
2023-07-12T08:35:01.726Z,32.45
2023-07-12T08:37:42.996Z,33.01
2023-07-12T08:40:22.733Z,31.92
2023-07-12T08:42:49.929Z,31.65
2023-07-12T08:45:34.654Z,29.70
2023-07-12T08:48:21.720Z,31.28
2023-07-12T08:51:00.066Z,31.17
2023-07-12T08:53:34.695Z,31.21
2023-07-12T08:56:16.583Z,32.08
2023-07-12T08:58:47.192Z,33.35
2023-07-12T09:01:41.618Z,31.09
2023-07-12T09:04:29.191Z,31.66
2023-07-12T09:06:58.931Z,32.37
2023-07-12T09:09:37.389Z,32.09
2023-07-12T09:12:23.981Z,31.33
2023-07-12T09:15:02.078Z,32.08
2023-07-12T09:17:43.801Z,31.34
2023-07-12T09:20:53.683Z,32.11
2023-07-12T09:23:24.081Z,31.59
2023-07-12T09:26:11.883Z,30.88
2023-07-12T09:28:49.693Z,31.49
2023-07-12T09:31:33.978Z,31.98
2023-07-12T09:34:05.599Z,32.49
2023-07-12T09:37:02.041Z,32.26
2023-07-12T09:39:40.294Z,32.12
2023-07-12T09:42:29.207Z,33.52
2023-07-12T09:45:06.195Z,32.78
2023-07-12T09:47:52.430Z,31.38
2023-07-12T09:50:34.986Z,32.06
2023-07-12T09:53:23.171Z,32.67
2023-07-12T09:56:29.685Z,32.03
2023-07-12T09:59:29.684Z,31.26
2023-07-12T10:02:29.921Z,31.10
2023-07-12T10:05:17.338Z,31.93
2023-07-12T10:08:02.287Z,30.63
2023-07-12T10:10:50.989Z,31.11
2023-07-12T10:13:43.546Z,30.46
2023-07-12T10:16:27.721Z,30.33
2023-07-12T10:19:22.774Z,32.06
2023-07-12T10:21:57.169Z,31.66
2023-07-12T10:24:36.696Z,32.49
2023-07-12T10:27:22.369Z,32.58
2023-07-12T10:30:04.179Z,32.32
2023-07-12T10:32:55.928Z,32.45
2023-07-12T10:35:44.489Z,32.00
2023-07-12T10:38:20.965Z,32.17
2023-07-12T10:41:03.061Z,31.89
2023-07-12T10:43:39.482Z,32.13
2023-07-12T10:46:14.125Z,33.15
2023-07-12T10:48:56.202Z,31.76
2023-07-12T10:51:38.066Z,30.75
2023-07-12T10:54:40.473Z,31.02
2023-07-12T10:57:43.272Z,30.07
2023-07-12T11:00:32.524Z,31.29
2023-07-12T11:03:19.632Z,31.35
2023-07-12T11:06:18.601Z,30.19
2023-07-12T11:09:02.541Z,29.89
2023-07-12T11:11:57.199Z,29.76
2023-07-12T11:14:39.439Z,29.59
2023-07-12T11:17:10.610Z,29.72
2023-07-12T11:19:52.071Z,29.19
2023-07-12T11:23:01.570Z,29.38
2023-07-12T11:26:04.684Z,29.68
2023-07-12T11:28:50.030Z,28.80
2023-07-12T11:31:35.124Z,29.75
2023-07-12T11:34:19.782Z,29.72
2023-07-12T11:36:55.946Z,30.21
2023-07-12T11:39:34.451Z,30.13
2023-07-12T11:42:10.168Z,30.09
2023-07-12T11:44:48.142Z,28.80
2023-07-12T11:47:32.364Z,30.08
2023-07-12T11:50:11.327Z,29.86
2023-07-12T11:52:46.601Z,29.30
2023-07-12T11:55:29.877Z,30.22
2023-07-12T11:57:57.849Z,29.90
2023-07-12T12:00:39.874Z,30.75
2023-07-12T12:03:21.805Z,30.48
2023-07-12T12:06:03.142Z,29.13
2023-07-12T12:08:38.956Z,29.70
2023-07-12T12:11:12.928Z,31.15
2023-07-12T12:13:54.600Z,29.74
2023-07-12T12:16:30.795Z,30.37
2023-07-12T12:19:17.653Z,30.31
2023-07-12T12:22:08.506Z,29.74
2023-07-12T12:25:08.448Z,29.11
2023-07-12T12:27:46.965Z,30.20
2023-07-12T12:30:24.412Z,29.93
2023-07-12T12:33:12.464Z,29.30
2023-07-12T12:35:56.616Z,28.82
2023-07-12T12:38:37.880Z,28.67
2023-07-12T12:41:22.660Z,28.89
2023-07-12T12:44:34.594Z,28.81
2023-07-12T12:47:22.186Z,28.76
2023-07-12T12:59:46.347Z,30.07
2023-07-12T13:07:05.172Z,28.46
2023-07-12T13:18:15.617Z,30.05
2023-07-12T13:20:49.137Z,30.14
2023-07-12T13:23:37.919Z,28.39
2023-07-12T13:26:17.438Z,28.85
2023-07-12T13:28:47.775Z,29.48
2023-07-12T13:31:29.420Z,29.80
2023-07-12T13:34:14.983Z,29.61
2023-07-12T13:37:07.626Z,29.11
2023-07-12T13:39:46.461Z,30.62
2023-07-12T13:42:44.005Z,29.78
2023-07-12T13:45:17.503Z,30.32
2023-07-12T13:47:54.225Z,29.51
2023-07-12T13:50:31.436Z,31.30
2023-07-12T13:53:28.721Z,32.16
2023-07-12T13:56:01.503Z,29.53
2023-07-12T13:59:01.832Z,31.04
2023-07-12T14:01:45.222Z,29.08
2023-07-12T14:06:57.494Z,28.60
2023-07-12T14:09:40.608Z,27.66
2023-07-12T14:12:29.393Z,27.00
2023-07-12T14:15:25.378Z,28.09
2023-07-12T14:18:04.433Z,27.07
2023-07-12T14:20:49.835Z,25.86
2023-07-12T14:23:27.856Z,27.47
2023-07-12T14:26:03.838Z,27.64
2023-07-12T14:31:33.927Z,25.88
2023-07-12T14:34:15.260Z,27.17
2023-07-12T14:36:52.792Z,26.61
2023-07-12T14:39:37.083Z,25.80
2023-07-12T14:42:14.861Z,26.03
2023-07-12T14:44:50.986Z,25.69
2023-07-12T14:47:19.380Z,27.19
2023-07-12T14:49:51.985Z,25.70
2023-07-12T14:52:22.546Z,26.51
2023-07-12T14:55:01.675Z,24.78
2023-07-12T14:58:08.576Z,24.78
2023-07-12T15:00:32.592Z,24.19
2023-07-12T15:03:02.071Z,24.55
2023-07-12T15:05:46.063Z,25.68
2023-07-12T15:08:32.883Z,25.65
2023-07-12T15:11:04.895Z,26.25
2023-07-12T15:13:45.462Z,26.38
2023-07-12T15:16:18.177Z,24.54
2023-07-12T15:18:47.456Z,24.99
2023-07-12T15:21:33.825Z,23.25
2023-07-12T15:24:00.923Z,22.29
2023-07-12T15:26:37.299Z,22.79
2023-07-12T15:29:15.907Z,22.46
2023-07-12T15:31:46.077Z,23.17
2023-07-12T15:34:19.423Z,24.14
2023-07-12T15:36:50.007Z,22.13
2023-07-12T15:39:20.388Z,22.72
2023-07-12T15:42:05.140Z,22.70
2023-07-12T15:44:43.475Z,24.23
2023-07-12T15:47:21.088Z,23.58
2023-07-12T15:49:58.402Z,23.11
2023-07-12T15:52:31.916Z,23.44
2023-07-12T15:55:05.595Z,22.42
2023-07-12T15:57:47.288Z,23.30
2023-07-12T16:00:28.669Z,22.95
2023-07-12T16:03:01.966Z,22.58
2023-07-12T16:05:54.380Z,22.88
2023-07-12T16:08:36.365Z,22.92
2023-07-12T16:11:30.064Z,23.11
2023-07-12T16:14:14.670Z,24.31
2023-07-12T16:16:47.428Z,24.33
2023-07-12T16:19:20.772Z,24.21
2023-07-12T16:21:59.518Z,24.61
2023-07-12T16:24:34.803Z,24.95
2023-07-12T16:27:15.771Z,25.40
2023-07-12T16:29:52.818Z,26.25
2023-07-12T16:32:23.185Z,26.27
2023-07-12T16:35:06.208Z,27.18
2023-07-12T16:37:49.511Z,27.26
2023-07-12T16:40:24.787Z,27.73
2023-07-12T16:42:57.867Z,28.35
2023-07-12T16:45:33.256Z,30.12
2023-07-12T16:48:05.609Z,30.56
2023-07-12T16:50:48.138Z,31.44
2023-07-12T16:53:27.646Z,31.41
2023-07-12T16:56:10.012Z,31.27
2023-07-12T16:58:46.220Z,31.61
2023-07-12T17:01:21.437Z,32.28
2023-07-12T17:04:04.267Z,32.08
2023-07-12T17:06:38.198Z,32.98
2023-07-12T17:09:20.179Z,32.29
2023-07-12T17:11:51.695Z,32.54
2023-07-12T17:14:38.439Z,32.50
2023-07-12T17:17:14.268Z,33.93
2023-07-12T17:19:52.821Z,33.63
2023-07-12T17:22:31.435Z,33.91
2023-07-12T17:25:14.430Z,33.41
2023-07-12T17:27:47.248Z,34.78
2023-07-12T17:30:28.548Z,34.62
2023-07-12T17:33:10.625Z,35.41
2023-07-12T17:35:54.681Z,34.36
2023-07-12T17:38:25.046Z,34.84
2023-07-12T17:41:00.647Z,35.25
2023-07-12T17:43:32.661Z,35.26
2023-07-12T17:46:02.527Z,35.44
2023-07-12T17:48:43.088Z,35.96
2023-07-12T17:51:23.572Z,36.70
2023-07-12T17:53:54.720Z,36.60
2023-07-12T17:56:34.533Z,36.20
2023-07-12T17:59:20.082Z,36.42
2023-07-12T18:02:04.083Z,36.73
2023-07-12T18:04:39.711Z,37.91
2023-07-12T18:07:26.573Z,37.79
2023-07-12T18:10:03.246Z,37.79
2023-07-12T18:12:37.946Z,37.44
2023-07-12T18:15:28.157Z,37.49
2023-07-12T18:18:10.638Z,37.59
2023-07-12T18:20:46.762Z,38.45
2023-07-12T18:23:24.622Z,38.47
2023-07-12T18:28:39.288Z,39.29
2023-07-12T18:31:31.900Z,40.63
2023-07-12T18:34:03.400Z,40.43
2023-07-12T18:36:45.217Z,41.99
2023-07-12T18:39:23.163Z,41.31
2023-07-12T18:42:26.564Z,41.18
2023-07-12T18:44:59.354Z,41.34
2023-07-12T18:47:38.233Z,41.79
2023-07-12T18:50:22.277Z,42.35
2023-07-12T18:53:04.130Z,42.59
2023-07-12T18:55:45.647Z,43.98
2023-07-12T18:58:17.184Z,44.57
2023-07-12T19:00:50.272Z,44.11
2023-07-12T19:03:41.445Z,44.35
2023-07-12T19:06:23.042Z,45.19
2023-07-12T19:08:59.480Z,44.02
2023-07-12T19:12:10.179Z,43.51
2023-07-12T19:14:47.637Z,43.73
2023-07-12T19:17:28.888Z,43.82
2023-07-12T19:20:09.084Z,44.04
2023-07-12T19:22:39.649Z,44.68
2023-07-12T19:25:21.455Z,44.84
2023-07-12T19:27:54.860Z,44.01
2023-07-12T19:30:28.463Z,43.50
2023-07-12T19:33:16.123Z,44.19
2023-07-12T19:35:55.972Z,43.50
2023-07-12T19:38:42.900Z,44.29
2023-07-12T19:41:20.804Z,44.56
2023-07-12T19:44:01.008Z,44.92
2023-07-12T19:46:34.906Z,45.15
2023-07-12T19:49:20.912Z,46.37
2023-07-12T19:52:04.299Z,46.36
2023-07-12T19:54:46.757Z,46.72
2023-07-12T19:57:31.047Z,47.13
2023-07-12T20:00:07.122Z,47.03
2023-07-12T20:03:05.475Z,46.24
2023-07-12T20:05:41.244Z,46.17
2023-07-12T20:08:19.078Z,46.23
2023-07-12T20:11:00.031Z,47.30
2023-07-12T20:13:39.641Z,47.77
2023-07-12T20:16:27.929Z,47.92
2023-07-12T20:19:08.768Z,48.21
2023-07-12T20:21:44.386Z,48.23
2023-07-12T20:24:23.003Z,48.13
2023-07-12T20:27:03.394Z,48.91
2023-07-12T20:29:48.491Z,48.96
2023-07-12T20:32:27.058Z,49.82
2023-07-12T20:35:12.761Z,50.68
2023-07-12T20:37:49.164Z,51.22
2023-07-12T20:40:24.786Z,51.39
2023-07-12T20:42:55.716Z,51.27
2023-07-12T20:45:37.408Z,51.44
2023-07-12T20:48:11.458Z,51.77
2023-07-12T20:50:48.909Z,52.44
2023-07-12T20:53:24.794Z,53.10
2023-07-12T20:55:58.839Z,52.94
2023-07-12T20:58:37.034Z,53.01
2023-07-12T21:01:12.823Z,53.70
2023-07-12T21:03:57.333Z,52.98
2023-07-12T21:06:38.843Z,52.70
2023-07-12T21:09:14.797Z,53.47
2023-07-12T21:11:52.311Z,54.64
2023-07-12T21:14:32.726Z,55.64
2023-07-12T21:17:16.486Z,55.41
2023-07-12T21:19:57.911Z,55.70
2023-07-12T21:22:33.446Z,56.50
2023-07-12T21:25:00.842Z,56.08
2023-07-12T21:27:41.438Z,55.85
2023-07-12T21:30:27.232Z,55.68
2023-07-12T21:33:05.932Z,56.49
2023-07-12T21:35:58.645Z,56.31
2023-07-12T21:38:39.591Z,56.46
2023-07-12T21:41:18.683Z,56.09
2023-07-12T21:44:04.773Z,55.75
2023-07-12T21:46:46.468Z,55.72
2023-07-12T21:49:13.652Z,55.57
2023-07-12T21:51:49.109Z,54.70
2023-07-12T21:54:24.103Z,56.14
2023-07-12T21:56:59.196Z,56.35
2023-07-12T21:59:37.958Z,56.64
2023-07-12T22:02:21.185Z,55.71
2023-07-12T22:04:54.519Z,56.06
2023-07-12T22:07:40.810Z,57.74
2023-07-12T22:10:11.907Z,57.96
2023-07-12T22:12:48.712Z,57.79
2023-07-12T22:15:27.208Z,57.62
2023-07-12T22:18:06.813Z,57.85
2023-07-12T22:20:46.360Z,57.32
2023-07-12T22:23:24.941Z,57.42
2023-07-12T22:26:06.542Z,57.01
2023-07-12T22:28:45.498Z,57.27
2023-07-12T22:31:18.572Z,57.92
2023-07-12T22:33:54.518Z,58.08
2023-07-12T22:36:40.505Z,58.21
2023-07-12T22:39:26.712Z,58.87
2023-07-12T22:42:11.036Z,58.48
2023-07-12T22:44:48.980Z,58.89
2023-07-12T22:47:27.439Z,58.67
2023-07-12T22:50:12.497Z,58.33
2023-07-12T22:52:53.885Z,58.38
2023-07-12T22:55:32.043Z,58.06
2023-07-12T22:58:01.615Z,59.52
2023-07-12T23:00:47.699Z,60.26
2023-07-12T23:03:24.571Z,60.54
2023-07-12T23:06:14.144Z,61.41
2023-07-12T23:08:56.902Z,61.05
2023-07-12T23:11:29.634Z,61.24
2023-07-12T23:14:05.107Z,62.45
2023-07-12T23:16:42.076Z,62.54
2023-07-12T23:19:20.886Z,60.74
2023-07-12T23:22:04.858Z,60.67
2023-07-12T23:24:50.071Z,60.62
2023-07-12T23:27:33.936Z,62.35
2023-07-12T23:30:10.664Z,61.41
2023-07-12T23:32:53.671Z,61.32
2023-07-12T23:35:35.730Z,61.68
2023-07-12T23:38:18.633Z,62.11
2023-07-12T23:40:49.159Z,62.74
2023-07-12T23:43:22.891Z,63.44
2023-07-12T23:45:51.587Z,63.82
2023-07-12T23:48:39.108Z,64.07
2023-07-12T23:51:14.938Z,64.93
2023-07-12T23:53:58.162Z,66.05
2023-07-12T23:56:47.710Z,67.21
2023-07-12T23:59:30.693Z,68.13
